sensor_id;sensor_type;location;lat;lon;timestamp;P1;durP1;ratioP1;P2;durP2;ratioP2
35324;SDS011;35135;47.510;19.036;2022-07-11T00:02:08;2.30;;;0.50;;
35324;SDS011;35135;47.510;19.036;2022-07-11T00:04:42;1.45;;;0.55;;
35324;SDS011;35135;47.510;19.036;2022-07-11T00:07:34;1.25;;;0.50;;
35324;SDS011;35135;47.510;19.036;2022-07-11T00:10:04;1.05;;;0.50;;
35324;SDS011;35135;47.510;19.036;2022-07-11T00:12:37;1.33;;;0.50;;
35324;SDS011;35135;47.510;19.036;2022-07-11T00:15:21;1.65;;;0.50;;
35324;SDS011;35135;47.510;19.036;2022-07-11T00:17:57;1.85;;;0.60;;
35324;SDS011;35135;47.510;19.036;2022-07-11T00:20:30;3.05;;;0.50;;
35324;SDS011;35135;47.510;19.036;2022-07-11T00:23:07;2.20;;;0.75;;
35324;SDS011;35135;47.510;19.036;2022-07-11T00:25:55;1.38;;;0.70;;
35324;SDS011;35135;47.510;19.036;2022-07-11T00:28:26;1.55;;;0.60;;
35324;SDS011;35135;47.510;19.036;2022-07-11T00:31:27;1.30;;;0.60;;
35324;SDS011;35135;47.510;19.036;2022-07-11T00:33:55;1.15;;;0.55;;
35324;SDS011;35135;47.510;19.036;2022-07-11T00:36:32;1.23;;;0.50;;
35324;SDS011;35135;47.510;19.036;2022-07-11T00:39:07;1.65;;;0.75;;
35324;SDS011;35135;47.510;19.036;2022-07-11T00:41:39;1.63;;;0.55;;
35324;SDS011;35135;47.510;19.036;2022-07-11T00:44:14;0.80;;;0.57;;
35324;SDS011;35135;47.510;19.036;2022-07-11T00:46:46;1.48;;;0.70;;
35324;SDS011;35135;47.510;19.036;2022-07-11T00:49:32;1.50;;;0.40;;
35324;SDS011;35135;47.510;19.036;2022-07-11T00:52:19;0.80;;;0.40;;
35324;SDS011;35135;47.510;19.036;2022-07-11T00:55:05;2.00;;;0.50;;
35324;SDS011;35135;47.510;19.036;2022-07-11T00:58:00;1.95;;;0.70;;
35324;SDS011;35135;47.510;19.036;2022-07-11T01:00:35;1.70;;;0.90;;
35324;SDS011;35135;47.510;19.036;2022-07-11T01:03:09;2.90;;;0.70;;
35324;SDS011;35135;47.510;19.036;2022-07-11T01:05:52;1.88;;;0.70;;
35324;SDS011;35135;47.510;19.036;2022-07-11T01:08:23;1.58;;;0.50;;
35324;SDS011;35135;47.510;19.036;2022-07-11T01:10:50;4.88;;;0.75;;
35324;SDS011;35135;47.510;19.036;2022-07-11T01:13:27;1.98;;;0.63;;
35324;SDS011;35135;47.510;19.036;2022-07-11T01:16:25;2.90;;;0.80;;
35324;SDS011;35135;47.510;19.036;2022-07-11T01:19:21;1.83;;;0.90;;
35324;SDS011;35135;47.510;19.036;2022-07-11T01:22:00;1.98;;;0.60;;
35324;SDS011;35135;47.510;19.036;2022-07-11T01:24:39;1.45;;;0.70;;
35324;SDS011;35135;47.510;19.036;2022-07-11T01:27:22;1.77;;;0.60;;
35324;SDS011;35135;47.510;19.036;2022-07-11T01:29:54;1.95;;;0.60;;
35324;SDS011;35135;47.510;19.036;2022-07-11T01:32:28;2.35;;;0.82;;
35324;SDS011;35135;47.510;19.036;2022-07-11T01:34:56;1.85;;;0.77;;
35324;SDS011;35135;47.510;19.036;2022-07-11T01:37:26;1.35;;;0.60;;
35324;SDS011;35135;47.510;19.036;2022-07-11T01:40:29;2.13;;;0.60;;
35324;SDS011;35135;47.510;19.036;2022-07-11T01:43:23;0.98;;;0.60;;
35324;SDS011;35135;47.510;19.036;2022-07-11T01:46:07;1.70;;;0.75;;
35324;SDS011;35135;47.510;19.036;2022-07-11T01:49:03;1.60;;;0.50;;
35324;SDS011;35135;47.510;19.036;2022-07-11T01:51:30;1.90;;;1.10;;
35324;SDS011;35135;47.510;19.036;2022-07-11T01:54:04;1.38;;;0.70;;
35324;SDS011;35135;47.510;19.036;2022-07-11T01:56:33;1.00;;;0.57;;
35324;SDS011;35135;47.510;19.036;2022-07-11T01:59:08;1.52;;;0.70;;
35324;SDS011;35135;47.510;19.036;2022-07-11T02:02:03;1.30;;;0.60;;
35324;SDS011;35135;47.510;19.036;2022-07-11T02:04:36;1.35;;;0.60;;
35324;SDS011;35135;47.510;19.036;2022-07-11T02:07:11;1.38;;;0.73;;
35324;SDS011;35135;47.510;19.036;2022-07-11T02:10:20;1.90;;;0.77;;
35324;SDS011;35135;47.510;19.036;2022-07-11T02:13:12;2.03;;;0.75;;
35324;SDS011;35135;47.510;19.036;2022-07-11T02:15:46;1.75;;;0.90;;
35324;SDS011;35135;47.510;19.036;2022-07-11T02:18:49;2.72;;;0.73;;
35324;SDS011;35135;47.510;19.036;2022-07-11T02:21:32;2.70;;;0.80;;
35324;SDS011;35135;47.510;19.036;2022-07-11T02:24:13;1.48;;;0.70;;
35324;SDS011;35135;47.510;19.036;2022-07-11T02:27:03;1.80;;;0.60;;
35324;SDS011;35135;47.510;19.036;2022-07-11T02:29:59;2.60;;;1.15;;
35324;SDS011;35135;47.510;19.036;2022-07-11T02:32:44;2.70;;;0.70;;
35324;SDS011;35135;47.510;19.036;2022-07-11T02:35:19;1.17;;;0.60;;
35324;SDS011;35135;47.510;19.036;2022-07-11T02:38:13;1.17;;;0.60;;
35324;SDS011;35135;47.510;19.036;2022-07-11T02:40:49;2.88;;;1.10;;
35324;SDS011;35135;47.510;19.036;2022-07-11T02:43:20;1.75;;;0.68;;
35324;SDS011;35135;47.510;19.036;2022-07-11T02:46:17;3.20;;;0.88;;
35324;SDS011;35135;47.510;19.036;2022-07-11T02:48:49;2.28;;;1.10;;
35324;SDS011;35135;47.510;19.036;2022-07-11T02:51:25;1.45;;;0.60;;
35324;SDS011;35135;47.510;19.036;2022-07-11T02:53:57;1.27;;;0.60;;
35324;SDS011;35135;47.510;19.036;2022-07-11T02:56:51;2.80;;;0.70;;
35324;SDS011;35135;47.510;19.036;2022-07-11T03:00:14;3.50;;;0.65;;
35324;SDS011;35135;47.510;19.036;2022-07-11T03:02:56;2.50;;;0.90;;
35324;SDS011;35135;47.510;19.036;2022-07-11T03:05:57;2.75;;;0.73;;
35324;SDS011;35135;47.510;19.036;2022-07-11T03:08:25;2.15;;;0.50;;
35324;SDS011;35135;47.510;19.036;2022-07-11T03:11:04;2.88;;;0.70;;
35324;SDS011;35135;47.510;19.036;2022-07-11T03:13:48;1.45;;;0.70;;
35324;SDS011;35135;47.510;19.036;2022-07-11T03:16:14;1.88;;;0.80;;
35324;SDS011;35135;47.510;19.036;2022-07-11T03:18:50;1.73;;;0.80;;
35324;SDS011;35135;47.510;19.036;2022-07-11T03:21:27;1.60;;;0.70;;
35324;SDS011;35135;47.510;19.036;2022-07-11T03:23:53;2.00;;;0.95;;
35324;SDS011;35135;47.510;19.036;2022-07-11T03:26:35;2.30;;;0.77;;
35324;SDS011;35135;47.510;19.036;2022-07-11T03:29:10;1.42;;;0.82;;
35324;SDS011;35135;47.510;19.036;2022-07-11T03:32:15;1.63;;;0.83;;
35324;SDS011;35135;47.510;19.036;2022-07-11T03:34:46;2.03;;;0.80;;
35324;SDS011;35135;47.510;19.036;2022-07-11T03:37:34;2.92;;;1.05;;
35324;SDS011;35135;47.510;19.036;2022-07-11T03:40:10;1.73;;;0.70;;
35324;SDS011;35135;47.510;19.036;2022-07-11T03:42:56;2.92;;;0.80;;
35324;SDS011;35135;47.510;19.036;2022-07-11T03:45:30;1.73;;;0.80;;
35324;SDS011;35135;47.510;19.036;2022-07-11T03:48:12;2.08;;;1.08;;
35324;SDS011;35135;47.510;19.036;2022-07-11T03:51:05;2.88;;;0.88;;
35324;SDS011;35135;47.510;19.036;2022-07-11T03:53:31;1.35;;;0.70;;
35324;SDS011;35135;47.510;19.036;2022-07-11T03:56:07;1.67;;;0.88;;
35324;SDS011;35135;47.510;19.036;2022-07-11T03:58:37;2.28;;;0.90;;
35324;SDS011;35135;47.510;19.036;2022-07-11T04:01:34;2.17;;;0.70;;
35324;SDS011;35135;47.510;19.036;2022-07-11T04:04:03;1.65;;;0.70;;
35324;SDS011;35135;47.510;19.036;2022-07-11T04:06:36;3.17;;;1.00;;
35324;SDS011;35135;47.510;19.036;2022-07-11T04:09:03;3.17;;;1.08;;
35324;SDS011;35135;47.510;19.036;2022-07-11T04:14:24;2.40;;;1.10;;
35324;SDS011;35135;47.510;19.036;2022-07-11T04:16:55;3.22;;;1.00;;
35324;SDS011;35135;47.510;19.036;2022-07-11T04:19:36;2.45;;;0.75;;
35324;SDS011;35135;47.510;19.036;2022-07-11T04:22:44;2.50;;;0.80;;
35324;SDS011;35135;47.510;19.036;2022-07-11T04:25:43;1.77;;;0.93;;
35324;SDS011;35135;47.510;19.036;2022-07-11T04:28:53;6.05;;;1.10;;
35324;SDS011;35135;47.510;19.036;2022-07-11T04:31:43;2.22;;;1.00;;
35324;SDS011;35135;47.510;19.036;2022-07-11T04:34:09;3.70;;;1.00;;
35324;SDS011;35135;47.510;19.036;2022-07-11T04:36:42;4.03;;;0.95;;
35324;SDS011;35135;47.510;19.036;2022-07-11T04:39:14;5.72;;;1.23;;
35324;SDS011;35135;47.510;19.036;2022-07-11T04:41:47;4.82;;;1.23;;
35324;SDS011;35135;47.510;19.036;2022-07-11T04:44:19;2.55;;;0.90;;
35324;SDS011;35135;47.510;19.036;2022-07-11T04:46:48;3.33;;;1.05;;
35324;SDS011;35135;47.510;19.036;2022-07-11T04:49:19;1.70;;;0.70;;
35324;SDS011;35135;47.510;19.036;2022-07-11T04:51:51;2.55;;;0.82;;
35324;SDS011;35135;47.510;19.036;2022-07-11T04:54:27;2.38;;;1.17;;
35324;SDS011;35135;47.510;19.036;2022-07-11T04:56:55;5.80;;;1.00;;
35324;SDS011;35135;47.510;19.036;2022-07-11T04:59:26;2.60;;;1.00;;
35324;SDS011;35135;47.510;19.036;2022-07-11T05:01:52;6.60;;;1.38;;
35324;SDS011;35135;47.510;19.036;2022-07-11T05:04:22;2.80;;;0.98;;
35324;SDS011;35135;47.510;19.036;2022-07-11T05:06:52;3.88;;;1.23;;
35324;SDS011;35135;47.510;19.036;2022-07-11T05:09:22;2.63;;;1.45;;
35324;SDS011;35135;47.510;19.036;2022-07-11T05:11:50;2.42;;;0.88;;
35324;SDS011;35135;47.510;19.036;2022-07-11T05:14:19;3.75;;;1.23;;
35324;SDS011;35135;47.510;19.036;2022-07-11T05:16:51;2.03;;;0.98;;
35324;SDS011;35135;47.510;19.036;2022-07-11T05:19:25;2.92;;;1.20;;
35324;SDS011;35135;47.510;19.036;2022-07-11T05:21:56;1.58;;;1.05;;
35324;SDS011;35135;47.510;19.036;2022-07-11T05:24:25;1.98;;;1.15;;
35324;SDS011;35135;47.510;19.036;2022-07-11T05:26:55;1.77;;;1.00;;
35324;SDS011;35135;47.510;19.036;2022-07-11T05:29:27;2.80;;;0.95;;
35324;SDS011;35135;47.510;19.036;2022-07-11T05:31:53;4.03;;;1.35;;
35324;SDS011;35135;47.510;19.036;2022-07-11T05:34:29;3.03;;;1.00;;
35324;SDS011;35135;47.510;19.036;2022-07-11T05:37:02;2.22;;;1.13;;
35324;SDS011;35135;47.510;19.036;2022-07-11T05:39:33;3.30;;;0.85;;
35324;SDS011;35135;47.510;19.036;2022-07-11T05:42:03;2.95;;;1.23;;
35324;SDS011;35135;47.510;19.036;2022-07-11T05:44:32;2.05;;;1.08;;
35324;SDS011;35135;47.510;19.036;2022-07-11T05:47:06;2.08;;;1.10;;
35324;SDS011;35135;47.510;19.036;2022-07-11T05:49:32;1.95;;;0.93;;
35324;SDS011;35135;47.510;19.036;2022-07-11T05:52:00;2.17;;;0.90;;
35324;SDS011;35135;47.510;19.036;2022-07-11T05:54:28;3.20;;;1.10;;
35324;SDS011;35135;47.510;19.036;2022-07-11T05:57:03;2.97;;;1.13;;
35324;SDS011;35135;47.510;19.036;2022-07-11T05:59:32;4.65;;;1.27;;
35324;SDS011;35135;47.510;19.036;2022-07-11T06:02:04;2.30;;;0.87;;
35324;SDS011;35135;47.510;19.036;2022-07-11T06:04:34;2.33;;;0.95;;
35324;SDS011;35135;47.510;19.036;2022-07-11T06:07:14;3.13;;;0.93;;
35324;SDS011;35135;47.510;19.036;2022-07-11T06:10:04;4.55;;;1.35;;
35324;SDS011;35135;47.510;19.036;2022-07-11T06:12:33;3.03;;;0.90;;
35324;SDS011;35135;47.510;19.036;2022-07-11T06:15:04;4.13;;;1.20;;
35324;SDS011;35135;47.510;19.036;2022-07-11T06:17:39;3.15;;;1.17;;
35324;SDS011;35135;47.510;19.036;2022-07-11T06:20:11;3.05;;;1.27;;
35324;SDS011;35135;47.510;19.036;2022-07-11T06:22:39;1.80;;;1.00;;
35324;SDS011;35135;47.510;19.036;2022-07-11T06:25:05;2.47;;;1.02;;
35324;SDS011;35135;47.510;19.036;2022-07-11T06:27:33;2.25;;;0.90;;
35324;SDS011;35135;47.510;19.036;2022-07-11T06:30:10;4.40;;;1.05;;
35324;SDS011;35135;47.510;19.036;2022-07-11T06:32:40;2.28;;;1.05;;
35324;SDS011;35135;47.510;19.036;2022-07-11T06:35:10;4.80;;;1.10;;
35324;SDS011;35135;47.510;19.036;2022-07-11T06:37:42;2.70;;;0.90;;
35324;SDS011;35135;47.510;19.036;2022-07-11T06:40:13;2.17;;;0.87;;
35324;SDS011;35135;47.510;19.036;2022-07-11T06:42:45;2.88;;;1.20;;
35324;SDS011;35135;47.510;19.036;2022-07-11T06:45:16;2.77;;;1.17;;
35324;SDS011;35135;47.510;19.036;2022-07-11T06:47:44;2.10;;;0.90;;
35324;SDS011;35135;47.510;19.036;2022-07-11T06:50:13;2.15;;;0.80;;
35324;SDS011;35135;47.510;19.036;2022-07-11T06:52:42;5.05;;;1.60;;
35324;SDS011;35135;47.510;19.036;2022-07-11T06:55:12;2.88;;;1.10;;
35324;SDS011;35135;47.510;19.036;2022-07-11T06:57:45;4.68;;;1.10;;
35324;SDS011;35135;47.510;19.036;2022-07-11T07:00:16;2.65;;;0.82;;
35324;SDS011;35135;47.510;19.036;2022-07-11T07:02:46;2.45;;;0.80;;
35324;SDS011;35135;47.510;19.036;2022-07-11T07:05:15;1.67;;;0.85;;
35324;SDS011;35135;47.510;19.036;2022-07-11T07:07:47;2.60;;;1.02;;
35324;SDS011;35135;47.510;19.036;2022-07-11T07:12:45;4.03;;;1.33;;
35324;SDS011;35135;47.510;19.036;2022-07-11T07:15:14;4.20;;;1.30;;
35324;SDS011;35135;47.510;19.036;2022-07-11T07:17:44;5.05;;;1.27;;
35324;SDS011;35135;47.510;19.036;2022-07-11T07:20:15;3.58;;;1.17;;
35324;SDS011;35135;47.510;19.036;2022-07-11T07:22:42;4.07;;;1.17;;
35324;SDS011;35135;47.510;19.036;2022-07-11T07:25:13;3.35;;;1.30;;
35324;SDS011;35135;47.510;19.036;2022-07-11T07:27:42;3.95;;;1.52;;
35324;SDS011;35135;47.510;19.036;2022-07-11T07:30:10;3.15;;;1.00;;
35324;SDS011;35135;47.510;19.036;2022-07-11T07:32:42;3.40;;;1.35;;
35324;SDS011;35135;47.510;19.036;2022-07-11T07:35:08;3.28;;;1.20;;
35324;SDS011;35135;47.510;19.036;2022-07-11T07:37:45;2.53;;;1.00;;
35324;SDS011;35135;47.510;19.036;2022-07-11T07:40:11;2.58;;;1.15;;
35324;SDS011;35135;47.510;19.036;2022-07-11T07:42:39;3.72;;;1.40;;
35324;SDS011;35135;47.510;19.036;2022-07-11T07:45:08;2.85;;;1.40;;
35324;SDS011;35135;47.510;19.036;2022-07-11T07:47:39;3.63;;;1.25;;
35324;SDS011;35135;47.510;19.036;2022-07-11T07:50:08;3.03;;;1.48;;
35324;SDS011;35135;47.510;19.036;2022-07-11T07:52:40;3.63;;;1.40;;
35324;SDS011;35135;47.510;19.036;2022-07-11T07:55:09;3.20;;;1.77;;
35324;SDS011;35135;47.510;19.036;2022-07-11T07:57:38;3.60;;;1.63;;
35324;SDS011;35135;47.510;19.036;2022-07-11T08:00:20;4.28;;;1.52;;
35324;SDS011;35135;47.510;19.036;2022-07-11T08:03:08;4.30;;;1.60;;
35324;SDS011;35135;47.510;19.036;2022-07-11T08:05:36;3.13;;;1.45;;
35324;SDS011;35135;47.510;19.036;2022-07-11T08:08:06;4.65;;;1.52;;
35324;SDS011;35135;47.510;19.036;2022-07-11T08:10:35;1.95;;;1.10;;
35324;SDS011;35135;47.510;19.036;2022-07-11T08:13:07;3.65;;;1.13;;
35324;SDS011;35135;47.510;19.036;2022-07-11T08:15:42;2.92;;;1.17;;
35324;SDS011;35135;47.510;19.036;2022-07-11T08:18:12;3.38;;;1.30;;
35324;SDS011;35135;47.510;19.036;2022-07-11T08:20:42;4.00;;;1.10;;
35324;SDS011;35135;47.510;19.036;2022-07-11T08:23:10;4.75;;;1.00;;
35324;SDS011;35135;47.510;19.036;2022-07-11T08:25:40;6.68;;;1.10;;
35324;SDS011;35135;47.510;19.036;2022-07-11T08:28:13;3.47;;;0.93;;
35324;SDS011;35135;47.510;19.036;2022-07-11T08:30:41;2.63;;;1.33;;
35324;SDS011;35135;47.510;19.036;2022-07-11T08:33:13;2.50;;;0.98;;
35324;SDS011;35135;47.510;19.036;2022-07-11T08:35:40;3.50;;;1.40;;
35324;SDS011;35135;47.510;19.036;2022-07-11T08:38:07;3.47;;;1.20;;
35324;SDS011;35135;47.510;19.036;2022-07-11T08:40:37;1.95;;;0.90;;
35324;SDS011;35135;47.510;19.036;2022-07-11T08:43:16;3.28;;;1.30;;
35324;SDS011;35135;47.510;19.036;2022-07-11T08:45:49;2.63;;;0.80;;
35324;SDS011;35135;47.510;19.036;2022-07-11T08:48:18;4.10;;;1.15;;
35324;SDS011;35135;47.510;19.036;2022-07-11T08:50:52;4.05;;;1.23;;
35324;SDS011;35135;47.510;19.036;2022-07-11T08:53:20;4.10;;;1.10;;
35324;SDS011;35135;47.510;19.036;2022-07-11T08:55:49;10.07;;;1.38;;
35324;SDS011;35135;47.510;19.036;2022-07-11T08:58:18;3.33;;;1.00;;
35324;SDS011;35135;47.510;19.036;2022-07-11T09:00:47;4.18;;;1.15;;
35324;SDS011;35135;47.510;19.036;2022-07-11T09:03:15;3.47;;;1.00;;
35324;SDS011;35135;47.510;19.036;2022-07-11T09:05:44;3.28;;;1.38;;
35324;SDS011;35135;47.510;19.036;2022-07-11T09:08:10;5.63;;;1.67;;
35324;SDS011;35135;47.510;19.036;2022-07-11T09:10:39;3.30;;;0.93;;
35324;SDS011;35135;47.510;19.036;2022-07-11T09:13:10;3.42;;;1.15;;
35324;SDS011;35135;47.510;19.036;2022-07-11T09:15:42;4.32;;;1.10;;
35324;SDS011;35135;47.510;19.036;2022-07-11T09:21:06;3.92;;;1.15;;
35324;SDS011;35135;47.510;19.036;2022-07-11T09:23:54;5.20;;;1.13;;
35324;SDS011;35135;47.510;19.036;2022-07-11T09:26:44;5.28;;;1.45;;
35324;SDS011;35135;47.510;19.036;2022-07-11T09:29:22;4.15;;;1.40;;
35324;SDS011;35135;47.510;19.036;2022-07-11T09:31:53;2.40;;;0.80;;
35324;SDS011;35135;47.510;19.036;2022-07-11T09:34:24;4.78;;;1.30;;
35324;SDS011;35135;47.510;19.036;2022-07-11T09:36:54;2.80;;;0.90;;
35324;SDS011;35135;47.510;19.036;2022-07-11T09:39:23;3.40;;;0.85;;
35324;SDS011;35135;47.510;19.036;2022-07-11T09:41:55;3.85;;;1.20;;
35324;SDS011;35135;47.510;19.036;2022-07-11T09:46:59;5.82;;;1.30;;
35324;SDS011;35135;47.510;19.036;2022-07-11T09:49:37;2.42;;;0.90;;
35324;SDS011;35135;47.510;19.036;2022-07-11T09:52:08;1.77;;;1.00;;
35324;SDS011;35135;47.510;19.036;2022-07-11T09:57:37;3.67;;;1.25;;
35324;SDS011;35135;47.510;19.036;2022-07-11T10:00:17;3.45;;;1.08;;
35324;SDS011;35135;47.510;19.036;2022-07-11T10:02:46;3.15;;;1.00;;
35324;SDS011;35135;47.510;19.036;2022-07-11T10:05:14;4.47;;;1.20;;
35324;SDS011;35135;47.510;19.036;2022-07-11T10:07:41;3.63;;;1.35;;
35324;SDS011;35135;47.510;19.036;2022-07-11T10:10:09;2.70;;;0.90;;
35324;SDS011;35135;47.510;19.036;2022-07-11T10:12:38;5.07;;;1.38;;
35324;SDS011;35135;47.510;19.036;2022-07-11T10:15:07;2.60;;;1.17;;
35324;SDS011;35135;47.510;19.036;2022-07-11T10:28:55;3.28;;;1.05;;
35324;SDS011;35135;47.510;19.036;2022-07-11T10:32:04;1.83;;;0.90;;
35324;SDS011;35135;47.510;19.036;2022-07-11T10:34:33;3.50;;;1.63;;
35324;SDS011;35135;47.510;19.036;2022-07-11T10:37:03;3.22;;;1.35;;
35324;SDS011;35135;47.510;19.036;2022-07-11T10:39:31;5.05;;;1.05;;
35324;SDS011;35135;47.510;19.036;2022-07-11T10:42:00;3.17;;;1.25;;
35324;SDS011;35135;47.510;19.036;2022-07-11T10:44:50;3.38;;;1.38;;
35324;SDS011;35135;47.510;19.036;2022-07-11T10:52:56;4.15;;;1.65;;
35324;SDS011;35135;47.510;19.036;2022-07-11T10:55:30;4.40;;;1.50;;
35324;SDS011;35135;47.510;19.036;2022-07-11T10:58:31;16.60;;;1.98;;
35324;SDS011;35135;47.510;19.036;2022-07-11T11:01:13;6.05;;;2.22;;
35324;SDS011;35135;47.510;19.036;2022-07-11T11:03:41;6.45;;;2.17;;
35324;SDS011;35135;47.510;19.036;2022-07-11T11:06:54;5.88;;;2.13;;
35324;SDS011;35135;47.510;19.036;2022-07-11T11:09:38;5.57;;;1.85;;
35324;SDS011;35135;47.510;19.036;2022-07-11T11:12:09;5.95;;;1.60;;
35324;SDS011;35135;47.510;19.036;2022-07-11T11:14:38;4.95;;;1.70;;
35324;SDS011;35135;47.510;19.036;2022-07-11T11:20:03;4.88;;;1.73;;
35324;SDS011;35135;47.510;19.036;2022-07-11T11:22:34;4.28;;;1.38;;
35324;SDS011;35135;47.510;19.036;2022-07-11T11:25:21;2.88;;;1.30;;
35324;SDS011;35135;47.510;19.036;2022-07-11T11:28:04;2.85;;;1.10;;
35324;SDS011;35135;47.510;19.036;2022-07-11T11:30:31;6.97;;;1.50;;
35324;SDS011;35135;47.510;19.036;2022-07-11T11:32:58;5.22;;;1.70;;
35324;SDS011;35135;47.510;19.036;2022-07-11T11:35:25;3.63;;;1.48;;
35324;SDS011;35135;47.510;19.036;2022-07-11T11:37:53;2.40;;;1.20;;
35324;SDS011;35135;47.510;19.036;2022-07-11T11:40:20;4.30;;;1.35;;
35324;SDS011;35135;47.510;19.036;2022-07-11T11:42:57;4.95;;;1.30;;
35324;SDS011;35135;47.510;19.036;2022-07-11T11:45:24;3.13;;;1.30;;
35324;SDS011;35135;47.510;19.036;2022-07-11T11:47:53;4.28;;;1.40;;
35324;SDS011;35135;47.510;19.036;2022-07-11T11:50:19;3.92;;;1.63;;
35324;SDS011;35135;47.510;19.036;2022-07-11T11:52:45;3.88;;;1.42;;
35324;SDS011;35135;47.510;19.036;2022-07-11T11:55:11;5.18;;;1.48;;
35324;SDS011;35135;47.510;19.036;2022-07-11T11:57:38;4.78;;;1.63;;
35324;SDS011;35135;47.510;19.036;2022-07-11T12:00:20;4.30;;;1.48;;
35324;SDS011;35135;47.510;19.036;2022-07-11T12:02:51;4.40;;;1.15;;
35324;SDS011;35135;47.510;19.036;2022-07-11T12:05:19;4.00;;;1.25;;
35324;SDS011;35135;47.510;19.036;2022-07-11T12:07:48;6.82;;;1.58;;
35324;SDS011;35135;47.510;19.036;2022-07-11T12:10:24;4.32;;;1.00;;
35324;SDS011;35135;47.510;19.036;2022-07-11T12:12:52;4.97;;;1.25;;
35324;SDS011;35135;47.510;19.036;2022-07-11T12:15:24;2.63;;;1.48;;
35324;SDS011;35135;47.510;19.036;2022-07-11T12:18:18;3.65;;;1.42;;
35324;SDS011;35135;47.510;19.036;2022-07-11T12:20:45;4.43;;;1.40;;
35324;SDS011;35135;47.510;19.036;2022-07-11T12:23:15;2.67;;;1.00;;
35324;SDS011;35135;47.510;19.036;2022-07-11T12:25:42;5.00;;;1.02;;
35324;SDS011;35135;47.510;19.036;2022-07-11T12:28:09;2.90;;;1.10;;
35324;SDS011;35135;47.510;19.036;2022-07-11T12:30:36;4.30;;;1.20;;
35324;SDS011;35135;47.510;19.036;2022-07-11T12:33:06;3.88;;;1.20;;
35324;SDS011;35135;47.510;19.036;2022-07-11T12:35:55;3.58;;;1.45;;
35324;SDS011;35135;47.510;19.036;2022-07-11T12:38:25;2.60;;;1.10;;
35324;SDS011;35135;47.510;19.036;2022-07-11T12:41:13;4.53;;;1.25;;
35324;SDS011;35135;47.510;19.036;2022-07-11T12:43:51;3.33;;;1.20;;
35324;SDS011;35135;47.510;19.036;2022-07-11T12:46:37;3.47;;;1.15;;
35324;SDS011;35135;47.510;19.036;2022-07-11T12:49:04;2.53;;;1.00;;
35324;SDS011;35135;47.510;19.036;2022-07-11T12:51:32;4.22;;;1.20;;
35324;SDS011;35135;47.510;19.036;2022-07-11T12:54:01;5.05;;;1.35;;
35324;SDS011;35135;47.510;19.036;2022-07-11T12:56:32;3.83;;;1.00;;
35324;SDS011;35135;47.510;19.036;2022-07-11T12:58:59;3.67;;;1.27;;
35324;SDS011;35135;47.510;19.036;2022-07-11T13:01:32;4.38;;;1.10;;
35324;SDS011;35135;47.510;19.036;2022-07-11T13:03:59;5.45;;;1.50;;
35324;SDS011;35135;47.510;19.036;2022-07-11T13:06:27;5.90;;;1.80;;
35324;SDS011;35135;47.510;19.036;2022-07-11T13:09:13;5.55;;;1.60;;
35324;SDS011;35135;47.510;19.036;2022-07-11T13:11:41;6.43;;;1.33;;
35324;SDS011;35135;47.510;19.036;2022-07-11T13:14:07;6.95;;;1.50;;
35324;SDS011;35135;47.510;19.036;2022-07-11T13:16:53;13.48;;;2.10;;
35324;SDS011;35135;47.510;19.036;2022-07-11T13:19:19;7.55;;;1.17;;
35324;SDS011;35135;47.510;19.036;2022-07-11T13:21:45;7.25;;;1.98;;
35324;SDS011;35135;47.510;19.036;2022-07-11T13:24:10;18.70;;;1.88;;
35324;SDS011;35135;47.510;19.036;2022-07-11T13:26:37;8.98;;;1.60;;
35324;SDS011;35135;47.510;19.036;2022-07-11T13:29:04;6.03;;;1.42;;
35324;SDS011;35135;47.510;19.036;2022-07-11T13:31:32;4.10;;;1.52;;
35324;SDS011;35135;47.510;19.036;2022-07-11T13:33:58;5.32;;;1.50;;
35324;SDS011;35135;47.510;19.036;2022-07-11T13:36:25;6.80;;;1.52;;
35324;SDS011;35135;47.510;19.036;2022-07-11T13:38:51;2.97;;;1.10;;
35324;SDS011;35135;47.510;19.036;2022-07-11T13:41:17;5.40;;;1.13;;
35324;SDS011;35135;47.510;19.036;2022-07-11T13:43:43;3.88;;;1.40;;
35324;SDS011;35135;47.510;19.036;2022-07-11T13:46:09;4.85;;;1.80;;
35324;SDS011;35135;47.510;19.036;2022-07-11T13:48:35;3.83;;;1.15;;
35324;SDS011;35135;47.510;19.036;2022-07-11T13:51:07;2.63;;;1.20;;
35324;SDS011;35135;47.510;19.036;2022-07-11T13:53:33;4.68;;;1.42;;
35324;SDS011;35135;47.510;19.036;2022-07-11T13:55:58;3.72;;;1.13;;
35324;SDS011;35135;47.510;19.036;2022-07-11T13:58:25;5.60;;;1.40;;
35324;SDS011;35135;47.510;19.036;2022-07-11T14:00:51;2.22;;;0.90;;
35324;SDS011;35135;47.510;19.036;2022-07-11T14:03:23;4.07;;;1.35;;
35324;SDS011;35135;47.510;19.036;2022-07-11T14:05:49;5.80;;;1.50;;
35324;SDS011;35135;47.510;19.036;2022-07-11T14:08:15;2.30;;;0.85;;
35324;SDS011;35135;47.510;19.036;2022-07-11T14:10:41;5.57;;;1.50;;
35324;SDS011;35135;47.510;19.036;2022-07-11T14:13:07;3.83;;;1.58;;
35324;SDS011;35135;47.510;19.036;2022-07-11T14:15:33;3.55;;;1.20;;
35324;SDS011;35135;47.510;19.036;2022-07-11T14:18:01;5.15;;;1.40;;
35324;SDS011;35135;47.510;19.036;2022-07-11T14:20:29;3.83;;;1.30;;
35324;SDS011;35135;47.510;19.036;2022-07-11T14:22:55;3.90;;;1.45;;
35324;SDS011;35135;47.510;19.036;2022-07-11T14:25:21;5.43;;;1.17;;
35324;SDS011;35135;47.510;19.036;2022-07-11T14:27:48;4.78;;;1.70;;
35324;SDS011;35135;47.510;19.036;2022-07-11T14:30:15;3.08;;;1.30;;
35324;SDS011;35135;47.510;19.036;2022-07-11T14:32:41;4.82;;;1.50;;
35324;SDS011;35135;47.510;19.036;2022-07-11T14:35:07;4.50;;;1.10;;
35324;SDS011;35135;47.510;19.036;2022-07-11T14:40:05;4.68;;;1.30;;
35324;SDS011;35135;47.510;19.036;2022-07-11T14:42:33;3.42;;;1.25;;
35324;SDS011;35135;47.510;19.036;2022-07-11T14:45:01;3.80;;;1.27;;
35324;SDS011;35135;47.510;19.036;2022-07-11T14:47:27;3.85;;;1.30;;
35324;SDS011;35135;47.510;19.036;2022-07-11T14:49:53;4.82;;;1.20;;
35324;SDS011;35135;47.510;19.036;2022-07-11T14:52:19;5.28;;;1.30;;
35324;SDS011;35135;47.510;19.036;2022-07-11T14:54:45;3.80;;;1.20;;
35324;SDS011;35135;47.510;19.036;2022-07-11T14:57:11;3.13;;;1.10;;
35324;SDS011;35135;47.510;19.036;2022-07-11T14:59:37;3.80;;;1.20;;
35324;SDS011;35135;47.510;19.036;2022-07-11T15:02:06;6.85;;;1.05;;
35324;SDS011;35135;47.510;19.036;2022-07-11T15:04:32;5.55;;;1.52;;
35324;SDS011;35135;47.510;19.036;2022-07-11T15:06:58;2.75;;;1.17;;
35324;SDS011;35135;47.510;19.036;2022-07-11T15:09:49;8.77;;;1.60;;
35324;SDS011;35135;47.510;19.036;2022-07-11T15:12:35;4.57;;;1.30;;
35324;SDS011;35135;47.510;19.036;2022-07-11T15:15:16;4.15;;;1.38;;
35324;SDS011;35135;47.510;19.036;2022-07-11T15:17:45;4.07;;;1.33;;
35324;SDS011;35135;47.510;19.036;2022-07-11T15:20:22;2.80;;;1.30;;
35324;SDS011;35135;47.510;19.036;2022-07-11T15:22:48;5.38;;;1.38;;
35324;SDS011;35135;47.510;19.036;2022-07-11T15:25:18;4.07;;;1.20;;
35324;SDS011;35135;47.510;19.036;2022-07-11T15:27:45;3.80;;;1.50;;
35324;SDS011;35135;47.510;19.036;2022-07-11T15:30:13;2.72;;;1.17;;
35324;SDS011;35135;47.510;19.036;2022-07-11T15:32:43;4.90;;;1.00;;
35324;SDS011;35135;47.510;19.036;2022-07-11T15:35:10;4.63;;;1.30;;
35324;SDS011;35135;47.510;19.036;2022-07-11T15:37:36;4.18;;;1.38;;
35324;SDS011;35135;47.510;19.036;2022-07-11T15:40:02;4.38;;;0.90;;
35324;SDS011;35135;47.510;19.036;2022-07-11T15:42:28;5.03;;;1.10;;
35324;SDS011;35135;47.510;19.036;2022-07-11T15:44:54;2.17;;;1.27;;
35324;SDS011;35135;47.510;19.036;2022-07-11T15:47:21;2.88;;;1.40;;
35324;SDS011;35135;47.510;19.036;2022-07-11T15:49:47;5.07;;;1.40;;